sensor_id;sensor_type;location;lat;lon;timestamp;P1;durP1;ratioP1;P2;durP2;ratioP2
13067;SDS011;6600;51.362;6.686;2022-11-14T00:01:27;4.97;;;1.93;;
13067;SDS011;6600;51.362;6.686;2022-11-14T00:03:52;2.40;;;1.97;;
13067;SDS011;6600;51.362;6.686;2022-11-14T00:06:18;3.43;;;2.13;;
13067;SDS011;6600;51.362;6.686;2022-11-14T00:08:43;2.27;;;1.80;;
13067;SDS011;6600;51.362;6.686;2022-11-14T00:11:09;2.83;;;1.90;;
13067;SDS011;6600;51.362;6.686;2022-11-14T00:13:34;2.80;;;2.53;;
13067;SDS011;6600;51.362;6.686;2022-11-14T00:15:59;2.00;;;1.90;;
13067;SDS011;6600;51.362;6.686;2022-11-14T00:18:25;2.50;;;2.27;;
13067;SDS011;6600;51.362;6.686;2022-11-14T00:20:50;3.40;;;1.83;;
13067;SDS011;6600;51.362;6.686;2022-11-14T00:23:17;2.27;;;2.07;;
13067;SDS011;6600;51.362;6.686;2022-11-14T00:25:44;1.50;;;1.40;;
13067;SDS011;6600;51.362;6.686;2022-11-14T00:28:10;3.17;;;2.30;;
13067;SDS011;6600;51.362;6.686;2022-11-14T00:30:35;4.13;;;1.97;;
13067;SDS011;6600;51.362;6.686;2022-11-14T00:33:01;2.10;;;1.97;;
13067;SDS011;6600;51.362;6.686;2022-11-14T00:35:26;3.93;;;1.77;;
13067;SDS011;6600;51.362;6.686;2022-11-14T00:37:51;2.67;;;2.00;;
13067;SDS011;6600;51.362;6.686;2022-11-14T00:40:17;1.90;;;1.77;;
13067;SDS011;6600;51.362;6.686;2022-11-14T00:42:42;3.63;;;2.40;;
13067;SDS011;6600;51.362;6.686;2022-11-14T00:45:09;3.20;;;2.40;;
13067;SDS011;6600;51.362;6.686;2022-11-14T00:47:35;4.23;;;2.30;;
13067;SDS011;6600;51.362;6.686;2022-11-14T00:50:00;4.27;;;2.27;;
13067;SDS011;6600;51.362;6.686;2022-11-14T00:52:25;6.80;;;1.47;;
13067;SDS011;6600;51.362;6.686;2022-11-14T00:54:51;2.37;;;1.77;;
13067;SDS011;6600;51.362;6.686;2022-11-14T00:57:16;3.97;;;2.10;;
13067;SDS011;6600;51.362;6.686;2022-11-14T00:59:41;2.23;;;1.87;;
13067;SDS011;6600;51.362;6.686;2022-11-14T01:02:07;4.70;;;1.67;;
13067;SDS011;6600;51.362;6.686;2022-11-14T01:04:32;2.37;;;1.77;;
13067;SDS011;6600;51.362;6.686;2022-11-14T01:06:57;1.97;;;1.27;;
13067;SDS011;6600;51.362;6.686;2022-11-14T01:09:23;2.50;;;2.30;;
13067;SDS011;6600;51.362;6.686;2022-11-14T01:11:48;2.10;;;1.80;;
13067;SDS011;6600;51.362;6.686;2022-11-14T01:14:13;1.97;;;1.57;;
13067;SDS011;6600;51.362;6.686;2022-11-14T01:16:39;2.23;;;1.43;;
13067;SDS011;6600;51.362;6.686;2022-11-14T01:19:04;5.97;;;2.27;;
13067;SDS011;6600;51.362;6.686;2022-11-14T01:21:29;2.37;;;1.70;;
13067;SDS011;6600;51.362;6.686;2022-11-14T01:23:55;1.60;;;1.50;;
13067;SDS011;6600;51.362;6.686;2022-11-14T01:26:20;4.23;;;1.50;;
13067;SDS011;6600;51.362;6.686;2022-11-14T01:28:46;3.77;;;1.57;;
13067;SDS011;6600;51.362;6.686;2022-11-14T01:31:15;2.20;;;1.60;;
13067;SDS011;6600;51.362;6.686;2022-11-14T01:33:49;1.83;;;1.50;;
13067;SDS011;6600;51.362;6.686;2022-11-14T01:36:16;2.40;;;1.70;;
13067;SDS011;6600;51.362;6.686;2022-11-14T01:38:41;4.30;;;1.70;;
13067;SDS011;6600;51.362;6.686;2022-11-14T01:41:08;2.70;;;1.30;;
13067;SDS011;6600;51.362;6.686;2022-11-14T01:43:38;2.23;;;1.30;;
13067;SDS011;6600;51.362;6.686;2022-11-14T01:46:06;1.60;;;1.50;;
13067;SDS011;6600;51.362;6.686;2022-11-14T01:49:05;4.10;;;1.70;;
13067;SDS011;6600;51.362;6.686;2022-11-14T01:52:01;3.87;;;1.23;;
13067;SDS011;6600;51.362;6.686;2022-11-14T01:54:32;2.60;;;1.73;;
13067;SDS011;6600;51.362;6.686;2022-11-14T01:57:01;4.83;;;1.20;;
13067;SDS011;6600;51.362;6.686;2022-11-14T01:59:41;1.43;;;1.10;;
13067;SDS011;6600;51.362;6.686;2022-11-14T02:02:19;2.47;;;1.97;;
13067;SDS011;6600;51.362;6.686;2022-11-14T02:04:51;1.70;;;1.60;;
13067;SDS011;6600;51.362;6.686;2022-11-14T02:07:21;1.47;;;1.37;;
13067;SDS011;6600;51.362;6.686;2022-11-14T02:09:50;1.60;;;1.33;;
13067;SDS011;6600;51.362;6.686;2022-11-14T02:12:16;2.67;;;1.93;;
13067;SDS011;6600;51.362;6.686;2022-11-14T02:14:43;1.50;;;1.40;;
13067;SDS011;6600;51.362;6.686;2022-11-14T02:17:11;1.50;;;1.17;;
13067;SDS011;6600;51.362;6.686;2022-11-14T02:22:31;1.43;;;1.30;;
13067;SDS011;6600;51.362;6.686;2022-11-14T02:24:56;2.80;;;1.43;;
13067;SDS011;6600;51.362;6.686;2022-11-14T02:27:22;1.20;;;1.10;;
13067;SDS011;6600;51.362;6.686;2022-11-14T02:29:47;3.10;;;1.20;;
13067;SDS011;6600;51.362;6.686;2022-11-14T02:32:13;2.93;;;1.67;;
13067;SDS011;6600;51.362;6.686;2022-11-14T02:34:38;2.87;;;1.50;;
13067;SDS011;6600;51.362;6.686;2022-11-14T02:37:04;2.80;;;1.53;;
13067;SDS011;6600;51.362;6.686;2022-11-14T02:39:30;2.97;;;1.73;;
13067;SDS011;6600;51.362;6.686;2022-11-14T02:41:55;3.23;;;2.17;;
13067;SDS011;6600;51.362;6.686;2022-11-14T02:44:20;3.27;;;1.57;;
13067;SDS011;6600;51.362;6.686;2022-11-14T02:46:46;1.67;;;1.57;;
13067;SDS011;6600;51.362;6.686;2022-11-14T02:49:11;2.27;;;2.00;;
13067;SDS011;6600;51.362;6.686;2022-11-14T02:51:36;1.40;;;1.30;;
13067;SDS011;6600;51.362;6.686;2022-11-14T02:54:02;4.23;;;1.77;;
13067;SDS011;6600;51.362;6.686;2022-11-14T02:56:27;1.63;;;1.53;;
13067;SDS011;6600;51.362;6.686;2022-11-14T02:58:52;3.13;;;1.30;;
13067;SDS011;6600;51.362;6.686;2022-11-14T03:01:18;1.93;;;1.60;;
13067;SDS011;6600;51.362;6.686;2022-11-14T03:03:43;5.50;;;1.93;;
13067;SDS011;6600;51.362;6.686;2022-11-14T03:06:08;2.10;;;1.20;;
13067;SDS011;6600;51.362;6.686;2022-11-14T03:08:33;3.20;;;1.97;;
13067;SDS011;6600;51.362;6.686;2022-11-14T03:11:03;2.97;;;1.40;;
13067;SDS011;6600;51.362;6.686;2022-11-14T03:13:30;1.67;;;1.37;;
13067;SDS011;6600;51.362;6.686;2022-11-14T03:15:55;1.20;;;1.10;;
13067;SDS011;6600;51.362;6.686;2022-11-14T03:18:20;1.57;;;1.47;;
13067;SDS011;6600;51.362;6.686;2022-11-14T03:20:46;1.80;;;1.70;;
13067;SDS011;6600;51.362;6.686;2022-11-14T03:23:11;2.97;;;1.93;;
13067;SDS011;6600;51.362;6.686;2022-11-14T03:25:36;2.13;;;2.03;;
13067;SDS011;6600;51.362;6.686;2022-11-14T03:28:02;1.40;;;1.30;;
13067;SDS011;6600;51.362;6.686;2022-11-14T03:30:27;1.20;;;1.10;;
13067;SDS011;6600;51.362;6.686;2022-11-14T03:32:54;1.77;;;1.50;;
13067;SDS011;6600;51.362;6.686;2022-11-14T03:35:20;1.83;;;1.47;;
13067;SDS011;6600;51.362;6.686;2022-11-14T03:37:45;2.23;;;2.00;;
13067;SDS011;6600;51.362;6.686;2022-11-14T03:40:10;1.70;;;1.33;;
13067;SDS011;6600;51.362;6.686;2022-11-14T03:42:36;1.33;;;1.23;;
13067;SDS011;6600;51.362;6.686;2022-11-14T03:45:01;1.63;;;1.53;;
13067;SDS011;6600;51.362;6.686;2022-11-14T03:47:27;1.80;;;1.20;;
13067;SDS011;6600;51.362;6.686;2022-11-14T03:49:52;2.73;;;1.70;;
13067;SDS011;6600;51.362;6.686;2022-11-14T03:52:17;2.87;;;1.60;;
13067;SDS011;6600;51.362;6.686;2022-11-14T03:54:43;4.07;;;1.63;;
13067;SDS011;6600;51.362;6.686;2022-11-14T03:57:08;1.90;;;1.80;;
13067;SDS011;6600;51.362;6.686;2022-11-14T03:59:33;1.63;;;1.53;;
13067;SDS011;6600;51.362;6.686;2022-11-14T04:01:58;3.33;;;1.00;;
13067;SDS011;6600;51.362;6.686;2022-11-14T04:04:24;2.60;;;2.07;;
13067;SDS011;6600;51.362;6.686;2022-11-14T04:06:49;1.10;;;1.07;;
13067;SDS011;6600;51.362;6.686;2022-11-14T04:09:14;4.00;;;1.90;;
13067;SDS011;6600;51.362;6.686;2022-11-14T04:11:40;1.53;;;1.33;;
13067;SDS011;6600;51.362;6.686;2022-11-14T04:14:05;0.60;;;0.60;;
13067;SDS011;6600;51.362;6.686;2022-11-14T04:16:30;1.80;;;1.00;;
13067;SDS011;6600;51.362;6.686;2022-11-14T04:18:56;3.37;;;1.30;;
13067;SDS011;6600;51.362;6.686;2022-11-14T04:21:21;1.23;;;1.13;;
13067;SDS011;6600;51.362;6.686;2022-11-14T04:23:46;1.23;;;1.20;;
13067;SDS011;6600;51.362;6.686;2022-11-14T04:26:12;1.73;;;1.30;;
13067;SDS011;6600;51.362;6.686;2022-11-14T04:28:37;1.90;;;1.23;;
13067;SDS011;6600;51.362;6.686;2022-11-14T04:31:02;1.17;;;1.13;;
13067;SDS011;6600;51.362;6.686;2022-11-14T04:33:27;1.00;;;0.90;;
13067;SDS011;6600;51.362;6.686;2022-11-14T04:35:53;1.50;;;1.40;;
13067;SDS011;6600;51.362;6.686;2022-11-14T04:38:18;1.83;;;1.10;;
13067;SDS011;6600;51.362;6.686;2022-11-14T04:40:47;4.23;;;1.73;;
13067;SDS011;6600;51.362;6.686;2022-11-14T04:43:16;0.97;;;0.97;;
13067;SDS011;6600;51.362;6.686;2022-11-14T04:45:42;0.90;;;0.90;;
13067;SDS011;6600;51.362;6.686;2022-11-14T04:48:08;1.63;;;1.20;;
13067;SDS011;6600;51.362;6.686;2022-11-14T04:50:33;1.17;;;1.07;;
13067;SDS011;6600;51.362;6.686;2022-11-14T04:52:58;1.00;;;1.00;;
13067;SDS011;6600;51.362;6.686;2022-11-14T04:55:23;0.60;;;0.60;;
13067;SDS011;6600;51.362;6.686;2022-11-14T04:57:55;2.03;;;1.37;;
13067;SDS011;6600;51.362;6.686;2022-11-14T05:00:21;1.90;;;1.13;;
13067;SDS011;6600;51.362;6.686;2022-11-14T05:02:47;0.60;;;0.60;;
13067;SDS011;6600;51.362;6.686;2022-11-14T05:05:13;1.53;;;0.80;;
13067;SDS011;6600;51.362;6.686;2022-11-14T05:07:38;1.43;;;1.03;;
13067;SDS011;6600;51.362;6.686;2022-11-14T05:10:03;1.23;;;1.13;;
13067;SDS011;6600;51.362;6.686;2022-11-14T05:12:29;1.33;;;0.70;;
13067;SDS011;6600;51.362;6.686;2022-11-14T05:14:55;1.10;;;1.07;;
13067;SDS011;6600;51.362;6.686;2022-11-14T05:17:21;0.57;;;0.57;;
13067;SDS011;6600;51.362;6.686;2022-11-14T05:19:46;0.97;;;0.97;;
13067;SDS011;6600;51.362;6.686;2022-11-14T05:22:11;1.00;;;0.90;;
13067;SDS011;6600;51.362;6.686;2022-11-14T05:24:37;1.03;;;0.83;;
13067;SDS011;6600;51.362;6.686;2022-11-14T05:27:02;0.70;;;0.70;;
13067;SDS011;6600;51.362;6.686;2022-11-14T05:29:28;1.80;;;1.00;;
13067;SDS011;6600;51.362;6.686;2022-11-14T05:31:53;1.87;;;1.30;;
13067;SDS011;6600;51.362;6.686;2022-11-14T05:34:18;1.20;;;1.00;;
13067;SDS011;6600;51.362;6.686;2022-11-14T05:36:44;0.97;;;0.97;;
13067;SDS011;6600;51.362;6.686;2022-11-14T05:39:09;2.33;;;1.07;;
13067;SDS011;6600;51.362;6.686;2022-11-14T05:41:34;0.87;;;0.87;;
13067;SDS011;6600;51.362;6.686;2022-11-14T05:43:59;0.87;;;0.87;;
13067;SDS011;6600;51.362;6.686;2022-11-14T05:46:25;2.23;;;1.30;;
13067;SDS011;6600;51.362;6.686;2022-11-14T05:48:50;1.57;;;1.20;;
13067;SDS011;6600;51.362;6.686;2022-11-14T05:51:15;1.10;;;1.07;;
13067;SDS011;6600;51.362;6.686;2022-11-14T05:53:40;3.50;;;1.63;;
13067;SDS011;6600;51.362;6.686;2022-11-14T05:56:08;1.93;;;1.10;;
13067;SDS011;6600;51.362;6.686;2022-11-14T05:58:35;2.00;;;1.30;;
13067;SDS011;6600;51.362;6.686;2022-11-14T06:01:17;1.20;;;1.10;;
13067;SDS011;6600;51.362;6.686;2022-11-14T06:03:44;0.57;;;0.57;;
13067;SDS011;6600;51.362;6.686;2022-11-14T06:06:12;1.17;;;1.17;;
13067;SDS011;6600;51.362;6.686;2022-11-14T06:08:39;0.93;;;0.93;;
13067;SDS011;6600;51.362;6.686;2022-11-14T06:11:06;3.00;;;1.70;;
13067;SDS011;6600;51.362;6.686;2022-11-14T06:13:36;2.37;;;1.40;;
13067;SDS011;6600;51.362;6.686;2022-11-14T06:16:03;2.07;;;1.33;;
13067;SDS011;6600;51.362;6.686;2022-11-14T06:18:31;1.33;;;1.23;;
13067;SDS011;6600;51.362;6.686;2022-11-14T06:20:57;2.20;;;1.30;;
13067;SDS011;6600;51.362;6.686;2022-11-14T06:23:24;2.13;;;1.40;;
13067;SDS011;6600;51.362;6.686;2022-11-14T06:25:49;2.33;;;1.20;;
13067;SDS011;6600;51.362;6.686;2022-11-14T06:28:14;2.03;;;1.20;;
13067;SDS011;6600;51.362;6.686;2022-11-14T06:30:40;1.43;;;1.33;;
13067;SDS011;6600;51.362;6.686;2022-11-14T06:33:05;1.87;;;1.10;;
13067;SDS011;6600;51.362;6.686;2022-11-14T06:35:30;1.87;;;1.00;;
13067;SDS011;6600;51.362;6.686;2022-11-14T06:37:58;1.13;;;0.83;;
13067;SDS011;6600;51.362;6.686;2022-11-14T06:40:23;1.27;;;1.00;;
13067;SDS011;6600;51.362;6.686;2022-11-14T06:42:49;1.53;;;1.00;;
13067;SDS011;6600;51.362;6.686;2022-11-14T06:45:14;2.93;;;1.07;;
13067;SDS011;6600;51.362;6.686;2022-11-14T06:47:40;1.53;;;1.43;;
13067;SDS011;6600;51.362;6.686;2022-11-14T06:50:05;1.30;;;1.20;;
13067;SDS011;6600;51.362;6.686;2022-11-14T06:52:31;1.07;;;0.97;;
13067;SDS011;6600;51.362;6.686;2022-11-14T06:54:56;3.53;;;1.63;;
13067;SDS011;6600;51.362;6.686;2022-11-14T06:57:21;1.67;;;1.20;;
13067;SDS011;6600;51.362;6.686;2022-11-14T06:59:47;1.33;;;1.07;;
13067;SDS011;6600;51.362;6.686;2022-11-14T07:02:12;2.60;;;1.63;;
13067;SDS011;6600;51.362;6.686;2022-11-14T07:04:38;2.87;;;1.23;;
13067;SDS011;6600;51.362;6.686;2022-11-14T07:07:03;1.27;;;1.17;;
13067;SDS011;6600;51.362;6.686;2022-11-14T07:09:28;2.30;;;1.40;;
13067;SDS011;6600;51.362;6.686;2022-11-14T07:11:53;1.87;;;1.27;;
13067;SDS011;6600;51.362;6.686;2022-11-14T07:14:19;2.33;;;1.43;;
13067;SDS011;6600;51.362;6.686;2022-11-14T07:16:44;1.87;;;1.50;;
13067;SDS011;6600;51.362;6.686;2022-11-14T07:19:09;2.50;;;1.50;;
13067;SDS011;6600;51.362;6.686;2022-11-14T07:21:35;1.83;;;1.20;;
13067;SDS011;6600;51.362;6.686;2022-11-14T07:24:00;1.50;;;1.40;;
13067;SDS011;6600;51.362;6.686;2022-11-14T07:26:26;2.57;;;1.53;;
13067;SDS011;6600;51.362;6.686;2022-11-14T07:28:51;1.40;;;1.30;;
13067;SDS011;6600;51.362;6.686;2022-11-14T07:31:17;3.33;;;1.90;;
13067;SDS011;6600;51.362;6.686;2022-11-14T07:33:44;2.90;;;1.50;;
13067;SDS011;6600;51.362;6.686;2022-11-14T07:36:10;1.70;;;1.60;;
13067;SDS011;6600;51.362;6.686;2022-11-14T07:38:37;1.67;;;1.57;;
13067;SDS011;6600;51.362;6.686;2022-11-14T07:41:03;3.50;;;1.47;;
13067;SDS011;6600;51.362;6.686;2022-11-14T07:43:31;1.80;;;1.70;;
13067;SDS011;6600;51.362;6.686;2022-11-14T07:46:00;1.83;;;1.63;;
13067;SDS011;6600;51.362;6.686;2022-11-14T07:48:27;4.30;;;1.80;;
13067;SDS011;6600;51.362;6.686;2022-11-14T07:50:56;4.67;;;2.07;;
13067;SDS011;6600;51.362;6.686;2022-11-14T07:53:22;3.67;;;1.90;;
13067;SDS011;6600;51.362;6.686;2022-11-14T07:55:48;3.50;;;2.00;;
13067;SDS011;6600;51.362;6.686;2022-11-14T07:58:13;4.97;;;1.97;;
13067;SDS011;6600;51.362;6.686;2022-11-14T08:00:38;2.50;;;1.77;;
13067;SDS011;6600;51.362;6.686;2022-11-14T08:03:05;7.13;;;2.77;;
13067;SDS011;6600;51.362;6.686;2022-11-14T08:05:31;3.93;;;2.50;;
13067;SDS011;6600;51.362;6.686;2022-11-14T08:07:57;3.50;;;2.13;;
13067;SDS011;6600;51.362;6.686;2022-11-14T08:10:22;3.67;;;2.00;;
13067;SDS011;6600;51.362;6.686;2022-11-14T08:12:55;5.30;;;2.90;;
13067;SDS011;6600;51.362;6.686;2022-11-14T08:15:25;2.27;;;2.07;;
13067;SDS011;6600;51.362;6.686;2022-11-14T08:17:51;4.37;;;2.30;;
13067;SDS011;6600;51.362;6.686;2022-11-14T08:20:17;5.60;;;2.30;;
13067;SDS011;6600;51.362;6.686;2022-11-14T08:22:42;4.60;;;2.30;;
13067;SDS011;6600;51.362;6.686;2022-11-14T08:25:07;8.53;;;3.00;;
13067;SDS011;6600;51.362;6.686;2022-11-14T08:27:33;3.60;;;2.50;;
13067;SDS011;6600;51.362;6.686;2022-11-14T08:29:58;5.73;;;2.50;;
13067;SDS011;6600;51.362;6.686;2022-11-14T08:32:23;5.53;;;3.10;;
13067;SDS011;6600;51.362;6.686;2022-11-14T08:34:49;4.13;;;2.53;;
13067;SDS011;6600;51.362;6.686;2022-11-14T08:37:14;8.70;;;3.03;;
13067;SDS011;6600;51.362;6.686;2022-11-14T08:39:39;7.80;;;3.60;;
13067;SDS011;6600;51.362;6.686;2022-11-14T08:42:05;4.83;;;3.33;;
13067;SDS011;6600;51.362;6.686;2022-11-14T08:44:30;6.70;;;3.33;;
13067;SDS011;6600;51.362;6.686;2022-11-14T08:46:55;8.83;;;4.17;;
13067;SDS011;6600;51.362;6.686;2022-11-14T08:49:23;6.80;;;2.90;;
13067;SDS011;6600;51.362;6.686;2022-11-14T08:51:50;3.93;;;2.93;;
13067;SDS011;6600;51.362;6.686;2022-11-14T08:54:16;7.43;;;3.83;;
13067;SDS011;6600;51.362;6.686;2022-11-14T08:56:41;10.20;;;3.57;;
13067;SDS011;6600;51.362;6.686;2022-11-14T08:59:07;6.80;;;3.03;;
13067;SDS011;6600;51.362;6.686;2022-11-14T09:01:32;5.67;;;3.13;;
13067;SDS011;6600;51.362;6.686;2022-11-14T09:03:58;6.40;;;2.67;;
13067;SDS011;6600;51.362;6.686;2022-11-14T09:06:24;6.23;;;3.47;;
13067;SDS011;6600;51.362;6.686;2022-11-14T09:08:49;6.03;;;2.30;;
13067;SDS011;6600;51.362;6.686;2022-11-14T09:11:14;6.40;;;3.10;;
13067;SDS011;6600;51.362;6.686;2022-11-14T09:13:39;9.37;;;4.03;;
13067;SDS011;6600;51.362;6.686;2022-11-14T09:16:05;6.33;;;3.00;;
13067;SDS011;6600;51.362;6.686;2022-11-14T09:18:30;7.47;;;3.23;;
13067;SDS011;6600;51.362;6.686;2022-11-14T09:20:59;8.33;;;3.07;;
13067;SDS011;6600;51.362;6.686;2022-11-14T09:23:29;4.20;;;3.17;;
13067;SDS011;6600;51.362;6.686;2022-11-14T09:25:54;6.87;;;3.63;;
13067;SDS011;6600;51.362;6.686;2022-11-14T09:28:21;6.50;;;2.97;;
13067;SDS011;6600;51.362;6.686;2022-11-14T09:30:47;7.47;;;3.30;;
13067;SDS011;6600;51.362;6.686;2022-11-14T09:33:12;5.80;;;3.50;;
13067;SDS011;6600;51.362;6.686;2022-11-14T09:35:38;8.00;;;3.83;;
13067;SDS011;6600;51.362;6.686;2022-11-14T09:38:05;6.80;;;3.87;;
13067;SDS011;6600;51.362;6.686;2022-11-14T09:40:38;6.97;;;3.50;;
13067;SDS011;6600;51.362;6.686;2022-11-14T09:45:42;8.10;;;2.87;;
13067;SDS011;6600;51.362;6.686;2022-11-14T09:48:18;4.03;;;3.20;;
13067;SDS011;6600;51.362;6.686;2022-11-14T09:50:57;7.30;;;3.87;;
13067;SDS011;6600;51.362;6.686;2022-11-14T09:53:31;4.50;;;3.00;;
13067;SDS011;6600;51.362;6.686;2022-11-14T09:56:01;6.07;;;3.23;;
13067;SDS011;6600;51.362;6.686;2022-11-14T09:58:26;6.93;;;3.50;;
13067;SDS011;6600;51.362;6.686;2022-11-14T10:04:37;7.23;;;2.97;;
13067;SDS011;6600;51.362;6.686;2022-11-14T10:06:55;6.40;;;3.50;;
13067;SDS011;6600;51.362;6.686;2022-11-14T10:18:04;6.80;;;2.73;;
13067;SDS011;6600;51.362;6.686;2022-11-14T10:26:04;4.97;;;2.63;;
13067;SDS011;6600;51.362;6.686;2022-11-14T10:33:55;4.40;;;2.70;;
13067;SDS011;6600;51.362;6.686;2022-11-14T10:36:33;5.30;;;2.70;;
13067;SDS011;6600;51.362;6.686;2022-11-14T10:41:36;6.90;;;3.97;;
13067;SDS011;6600;51.362;6.686;2022-11-14T10:44:03;3.73;;;2.50;;
13067;SDS011;6600;51.362;6.686;2022-11-14T10:46:36;3.50;;;2.03;;
13067;SDS011;6600;51.362;6.686;2022-11-14T10:49:15;5.60;;;2.67;;
13067;SDS011;6600;51.362;6.686;2022-11-14T10:51:45;6.73;;;3.70;;
13067;SDS011;6600;51.362;6.686;2022-11-14T10:54:23;3.90;;;2.70;;
13067;SDS011;6600;51.362;6.686;2022-11-14T10:56:56;4.50;;;2.73;;
13067;SDS011;6600;51.362;6.686;2022-11-14T10:59:21;5.10;;;2.23;;
13067;SDS011;6600;51.362;6.686;2022-11-14T11:01:56;3.87;;;2.50;;
13067;SDS011;6600;51.362;6.686;2022-11-14T11:06:58;3.87;;;2.43;;
13067;SDS011;6600;51.362;6.686;2022-11-14T11:10:01;3.27;;;1.60;;
13067;SDS011;6600;51.362;6.686;2022-11-14T11:12:47;5.27;;;2.57;;
13067;SDS011;6600;51.362;6.686;2022-11-14T11:15:17;3.93;;;2.57;;
13067;SDS011;6600;51.362;6.686;2022-11-14T11:17:55;4.03;;;2.67;;
13067;SDS011;6600;51.362;6.686;2022-11-14T11:25:31;4.70;;;2.70;;
13067;SDS011;6600;51.362;6.686;2022-11-14T11:28:10;4.40;;;2.77;;
13067;SDS011;6600;51.362;6.686;2022-11-14T11:30:59;4.07;;;2.20;;
13067;SDS011;6600;51.362;6.686;2022-11-14T11:35:55;4.70;;;2.50;;
13067;SDS011;6600;51.362;6.686;2022-11-14T11:38:25;4.27;;;2.30;;
13067;SDS011;6600;51.362;6.686;2022-11-14T11:41:16;4.77;;;2.43;;
13067;SDS011;6600;51.362;6.686;2022-11-14T11:43:49;5.13;;;2.83;;
13067;SDS011;6600;51.362;6.686;2022-11-14T11:46:23;7.53;;;2.63;;
13067;SDS011;6600;51.362;6.686;2022-11-14T11:48:55;5.13;;;3.40;;
13067;SDS011;6600;51.362;6.686;2022-11-14T11:51:27;2.90;;;2.00;;
13067;SDS011;6600;51.362;6.686;2022-11-14T11:53:56;5.67;;;3.17;;
13067;SDS011;6600;51.362;6.686;2022-11-14T11:56:29;5.67;;;2.60;;
13067;SDS011;6600;51.362;6.686;2022-11-14T11:59:13;5.17;;;2.90;;
13067;SDS011;6600;51.362;6.686;2022-11-14T12:01:50;10.03;;;3.40;;
13067;SDS011;6600;51.362;6.686;2022-11-14T12:04:16;6.47;;;3.10;;
13067;SDS011;6600;51.362;6.686;2022-11-14T12:06:45;4.97;;;3.30;;
13067;SDS011;6600;51.362;6.686;2022-11-14T12:09:36;5.03;;;3.50;;
13067;SDS011;6600;51.362;6.686;2022-11-14T12:12:05;5.63;;;3.70;;
13067;SDS011;6600;51.362;6.686;2022-11-14T12:17:29;5.20;;;3.00;;
13067;SDS011;6600;51.362;6.686;2022-11-14T12:31:44;7.30;;;3.20;;
13067;SDS011;6600;51.362;6.686;2022-11-14T12:34:16;3.73;;;2.43;;
13067;SDS011;6600;51.362;6.686;2022-11-14T12:36:49;4.80;;;3.33;;
13067;SDS011;6600;51.362;6.686;2022-11-14T12:39:25;4.67;;;2.67;;
13067;SDS011;6600;51.362;6.686;2022-11-14T12:42:05;4.20;;;2.60;;
13067;SDS011;6600;51.362;6.686;2022-11-14T12:44:38;5.23;;;3.23;;
13067;SDS011;6600;51.362;6.686;2022-11-14T12:57:44;5.83;;;3.23;;
13067;SDS011;6600;51.362;6.686;2022-11-14T13:00:30;7.37;;;3.77;;
13067;SDS011;6600;51.362;6.686;2022-11-14T13:03:10;5.97;;;2.73;;
13067;SDS011;6600;51.362;6.686;2022-11-14T13:08:38;6.40;;;2.67;;
13067;SDS011;6600;51.362;6.686;2022-11-14T13:14:18;4.30;;;3.17;;
13067;SDS011;6600;51.362;6.686;2022-11-14T13:19:59;5.93;;;3.30;;
13067;SDS011;6600;51.362;6.686;2022-11-14T13:22:45;6.23;;;3.03;;
13067;SDS011;6600;51.362;6.686;2022-11-14T13:25:14;5.60;;;2.63;;
13067;SDS011;6600;51.362;6.686;2022-11-14T13:27:41;7.07;;;3.80;;
13067;SDS011;6600;51.362;6.686;2022-11-14T13:30:06;4.00;;;2.77;;
13067;SDS011;6600;51.362;6.686;2022-11-14T13:40:36;6.23;;;3.27;;
13067;SDS011;6600;51.362;6.686;2022-11-14T13:43:17;5.57;;;2.90;;
13067;SDS011;6600;51.362;6.686;2022-11-14T13:46:21;11.27;;;3.07;;
13067;SDS011;6600;51.362;6.686;2022-11-14T13:52:04;7.87;;;3.10;;
13067;SDS011;6600;51.362;6.686;2022-11-14T13:54:29;6.60;;;3.73;;
13067;SDS011;6600;51.362;6.686;2022-11-14T14:05:20;5.03;;;3.10;;
13067;SDS011;6600;51.362;6.686;2022-11-14T14:08:13;4.47;;;2.80;;
13067;SDS011;6600;51.362;6.686;2022-11-14T14:13:51;5.93;;;3.90;;
13067;SDS011;6600;51.362;6.686;2022-11-14T14:16:34;6.77;;;3.60;;
13067;SDS011;6600;51.362;6.686;2022-11-14T14:21:51;8.80;;;3.83;;
13067;SDS011;6600;51.362;6.686;2022-11-14T14:24:48;7.00;;;4.53;;
13067;SDS011;6600;51.362;6.686;2022-11-14T14:27:24;4.93;;;3.67;;
13067;SDS011;6600;51.362;6.686;2022-11-14T14:30:00;6.57;;;3.50;;
13067;SDS011;6600;51.362;6.686;2022-11-14T14:32:32;5.40;;;3.17;;
13067;SDS011;6600;51.362;6.686;2022-11-14T14:34:57;5.60;;;3.40;;
13067;SDS011;6600;51.362;6.686;2022-11-14T14:37:25;6.73;;;3.80;;
13067;SDS011;6600;51.362;6.686;2022-11-14T14:39:59;5.43;;;3.33;;
13067;SDS011;6600;51.362;6.686;2022-11-14T14:42:37;5.10;;;3.60;;
13067;SDS011;6600;51.362;6.686;2022-11-14T14:45:06;6.07;;;3.27;;
13067;SDS011;6600;51.362;6.686;2022-11-14T14:47:40;6.60;;;3.87;;
13067;SDS011;6600;51.362;6.686;2022-11-14T14:50:12;6.77;;;3.30;;
13067;SDS011;6600;51.362;6.686;2022-11-14T14:52:38;6.43;;;3.87;;
13067;SDS011;6600;51.362;6.686;2022-11-14T14:55:04;8.53;;;3.47;;
13067;SDS011;6600;51.362;6.686;2022-11-14T14:57:32;4.27;;;3.10;;
13067;SDS011;6600;51.362;6.686;2022-11-14T15:00:18;6.57;;;4.03;;
13067;SDS011;6600;51.362;6.686;2022-11-14T15:02:44;4.17;;;2.87;;
13067;SDS011;6600;51.362;6.686;2022-11-14T15:05:09;5.67;;;3.10;;
13067;SDS011;6600;51.362;6.686;2022-11-14T15:07:37;8.40;;;3.93;;
13067;SDS011;6600;51.362;6.686;2022-11-14T15:10:04;4.37;;;3.27;;
13067;SDS011;6600;51.362;6.686;2022-11-14T15:12:31;6.67;;;3.37;;
13067;SDS011;6600;51.362;6.686;2022-11-14T15:14:58;5.67;;;3.27;;
13067;SDS011;6600;51.362;6.686;2022-11-14T15:17:25;7.77;;;3.70;;
13067;SDS011;6600;51.362;6.686;2022-11-14T15:19:51;5.80;;;3.70;;
13067;SDS011;6600;51.362;6.686;2022-11-14T15:22:19;8.83;;;3.43;;
13067;SDS011;6600;51.362;6.686;2022-11-14T15:27:52;6.83;;;3.53;;
13067;SDS011;6600;51.362;6.686;2022-11-14T15:30:23;7.37;;;4.60;;
13067;SDS011;6600;51.362;6.686;2022-11-14T15:32:54;7.07;;;4.07;;
13067;SDS011;6600;51.362;6.686;2022-11-14T15:40:28;8.37;;;3.80;;
13067;SDS011;6600;51.362;6.686;2022-11-14T15:42:54;7.43;;;3.40;;
13067;SDS011;6600;51.362;6.686;2022-11-14T15:47:46;3.87;;;3.30;;
13067;SDS011;6600;51.362;6.686;2022-11-14T15:52:45;5.00;;;3.83;;
13067;SDS011;6600;51.362;6.686;2022-11-14T15:55:19;7.10;;;3.87;;
13067;SDS011;6600;51.362;6.686;2022-11-14T15:57:46;5.93;;;4.13;;
13067;SDS011;6600;51.362;6.686;2022-11-14T16:00:15;5.80;;;3.57;;
13067;SDS011;6600;51.362;6.686;2022-11-14T16:02:47;6.77;;;4.37;;
13067;SDS011;6600;51.362;6.686;2022-11-14T16:05:15;7.13;;;3.97;;
13067;SDS011;6600;51.362;6.686;2022-11-14T16:07:43;6.53;;;3.67;;
13067;SDS011;6600;51.362;6.686;2022-11-14T16:10:13;6.63;;;4.20;;
13067;SDS011;6600;51.362;6.686;2022-11-14T16:12:39;7.23;;;4.03;;
13067;SDS011;6600;51.362;6.686;2022-11-14T16:15:05;5.53;;;3.30;;
13067;SDS011;6600;51.362;6.686;2022-11-14T16:17:34;7.97;;;4.40;;
13067;SDS011;6600;51.362;6.686;2022-11-14T16:20:04;9.90;;;4.13;;
13067;SDS011;6600;51.362;6.686;2022-11-14T16:22:34;9.67;;;4.47;;
13067;SDS011;6600;51.362;6.686;2022-11-14T16:25:00;11.43;;;5.00;;
13067;SDS011;6600;51.362;6.686;2022-11-14T16:27:25;7.53;;;3.90;;
13067;SDS011;6600;51.362;6.686;2022-11-14T16:29:51;8.03;;;4.33;;
13067;SDS011;6600;51.362;6.686;2022-11-14T16:32:17;9.23;;;4.83;;
13067;SDS011;6600;51.362;6.686;2022-11-14T16:34:43;9.47;;;4.93;;
13067;SDS011;6600;51.362;6.686;2022-11-14T16:37:10;9.77;;;4.60;;
13067;SDS011;6600;51.362;6.686;2022-11-14T16:39:37;5.67;;;4.07;;
13067;SDS011;6600;51.362;6.686;2022-11-14T16:42:02;7.13;;;4.20;;
13067;SDS011;6600;51.362;6.686;2022-11-14T16:44:29;6.57;;;3.57;;
13067;SDS011;6600;51.362;6.686;2022-11-14T16:46:54;4.40;;;3.67;;
13067;SDS011;6600;51.362;6.686;2022-11-14T16:49:20;6.13;;;4.13;;
13067;SDS011;6600;51.362;6.686;2022-11-14T16:51:46;5.67;;;3.10;;
13067;SDS011;6600;51.362;6.686;2022-11-14T16:54:13;7.60;;;4.43;;
13067;SDS011;6600;51.362;6.686;2022-11-14T16:56:38;4.27;;;3.33;;
13067;SDS011;6600;51.362;6.686;2022-11-14T16:59:04;7.17;;;4.37;;
13067;SDS011;6600;51.362;6.686;2022-11-14T17:01:30;6.10;;;3.93;;